Impacts TAF Board INFO
FOR SITUATIONAL AWARENESS. NOT TO BE USED FOR FLIGHT PLANNING PURPOSES.
IDs:

KCLE - Cleveland/Hopkins In, OH, US

Issued at 2103 UTC 16 Oct 2017
Updated at 2157 UTC 16 Oct 2017
Potential Impact None Slight Moderate High
Time2151Z 16/22Z 16/23Z 17/00Z 17/01Z 17/02Z 17/03Z 17/04Z 17/05Z 17/06Z 17/07Z 17/08Z 17/09Z 17/10Z>>
Type OBS PRVL PRVL PRVL PRVL PRVL PRVL PRVL PRVL PRVL PRVL PRVL PRVL PRVL
VIS 10 >6 >6 >6 >6 >6 >6 >6 >6 >6 >6 >6 >6 >6
CIG -- -- -- -- -- -- -- -- -- -- -- -- -- --
Cover FEW SCT SCT SCT SKC SKC SKC SKC SKC SKC SKC SKC SKC SKC
FltCat VFR VFR VFR VFR VFR VFR VFR VFR VFR VFR VFR VFR VFR VFR
WX -- -- -- -- -- -- -- -- -- -- -- -- -- --
WDir 290 320 320 320 190 190 190 190 190 190 190 190 190 190
WSpd 7 8 8 8 4 4 4 4 4 4 4 4 4 4
WGst -- -- -- -- -- -- -- -- -- -- -- -- -- --

Raw TAF
KCLE 162103Z 1621/1724 32008KT P6SM SCT040
  FM170100 19004KT P6SM SKC
  FM171600 22014G22KT P6SM SKC


Raw METAR
KCLE 162151Z 29007KT 10SM FEW045 12/01 A3029 RMK AO2 SLP259 T01220011
KCLE 162051Z 32008KT 10SM FEW045 13/02 A3030 RMK AO2 SLP260 T01280017 53001
KCLE 161951Z 35010KT 10SM FEW043 13/02 A3029 RMK AO2 SLP258 T01330017
KCLE 161851Z COR 36011KT 10SM FEW043 14/01 A3028 RMK AO2 SLP256 T01390011

METAR Board
Radar Display
Forecast Discussion

FOR SITUATIONAL AWARENESS. NOT TO BE USED FOR FLIGHT PLANNING PURPOSES.